Time;durP1;ratioP1;P1;durP2;ratioP2;P2;SDS_P1;SDS_P2;PMS_P1;PMS_P2;Temp;Humidity;BMP_temperature;BMP_pressure;BME280_temperature;BME280_humidity;BME280_pressure;Samples;Min_cycle;Max_cycle;Signal;HPM_P1;HPM_P2
2021/05/15 00:02:40;;;;;;;3.20;2.13;;;21.20;52.70;;;;;;10492000;28;20196;-13
2021/05/15 00:08:03;;;;;;;1.97;1.70;;;21.20;52.50;;;;;;10491450;28;20287;-11
2021/05/15 00:13:25;;;;;;;2.20;2.00;;;21.20;52.50;;;;;;10490135;28;20271;-12
2021/05/15 00:18:47;;;;;;;2.60;2.00;;;21.20;52.50;;;;;;10414546;28;20202;-14
2021/05/15 00:24:10;;;;;;;2.53;2.00;;;21.20;52.50;;;;;;10418123;28;20202;-14
2021/05/15 00:29:32;;;;;;;2.20;1.90;;;21.10;52.60;;;;;;10436277;28;20278;-14
2021/05/15 00:34:54;;;;;;;2.37;1.97;;;21.10;52.60;;;;;;10459189;28;20220;-12
2021/05/15 00:40:16;;;;;;;2.87;2.00;;;21.20;52.30;;;;;;10459049;28;20311;-15
2021/05/15 00:45:38;;;;;;;2.20;2.00;;;21.20;52.30;;;;;;10458423;28;20220;-14
2021/05/15 00:51:02;;;;;;;3.00;2.20;;;21.20;52.40;;;;;;10458485;28;20193;-12
2021/05/15 00:56:23;;;;;;;2.90;2.10;;;21.10;52.60;;;;;;10457404;28;20258;-14
2021/05/15 01:01:45;;;;;;;2.93;2.00;;;21.20;52.50;;;;;;10457983;28;20201;-15
2021/05/15 01:07:09;;;;;;;2.90;2.03;;;21.10;52.50;;;;;;10485665;28;20224;-16
2021/05/15 01:12:31;;;;;;;2.57;1.87;;;21.20;52.30;;;;;;10497917;28;20189;-11
2021/05/15 01:17:54;;;;;;;3.87;2.33;;;21.20;52.10;;;;;;10497336;28;20208;-14
2021/05/15 01:23:16;;;;;;;3.30;2.43;;;21.20;52.40;;;;;;10498419;28;20196;-12
2021/05/15 01:28:38;;;;;;;2.57;2.27;;;21.20;52.40;;;;;;10484645;28;20578;-12
2021/05/15 01:34:00;;;;;;;2.50;2.10;;;21.10;52.30;;;;;;10456581;28;20197;-14
2021/05/15 01:39:22;;;;;;;2.53;2.30;;;21.20;52.10;;;;;;10456517;28;20247;-11
2021/05/15 01:44:44;;;;;;;2.40;2.17;;;21.10;52.30;;;;;;10455756;28;20216;-14
2021/05/15 01:50:08;;;;;;;2.57;2.13;;;21.10;52.50;;;;;;10456098;28;20656;-11
2021/05/15 01:55:30;;;;;;;2.60;2.40;;;21.10;52.40;;;;;;10455131;28;20689;-12
2021/05/15 02:00:53;;;;;;;2.83;2.30;;;21.10;52.30;;;;;;10490874;28;20672;-11
2021/05/15 02:06:15;;;;;;;3.73;2.77;;;21.10;52.40;;;;;;10497716;28;20221;-14
2021/05/15 02:11:38;;;;;;;2.97;2.43;;;21.20;52.30;;;;;;10496300;28;20241;-14
2021/05/15 02:17:00;;;;;;;3.47;2.73;;;21.20;52.30;;;;;;10495176;28;20208;-14
2021/05/15 02:22:22;;;;;;;3.63;2.70;;;21.10;52.30;;;;;;10495381;28;20554;-11
2021/05/15 02:27:44;;;;;;;2.97;2.57;;;21.20;52.20;;;;;;10487800;28;20220;-12
2021/05/15 02:33:06;;;;;;;3.43;2.67;;;21.20;52.20;;;;;;10454043;28;20197;-11
2021/05/15 02:38:27;;;;;;;5.07;2.73;;;21.10;52.20;;;;;;10453771;28;20205;-14
2021/05/15 02:43:50;;;;;;;2.77;2.57;;;21.20;52.30;;;;;;10453581;28;20666;-12
2021/05/15 02:49:11;;;;;;;3.33;3.03;;;21.10;52.30;;;;;;10453881;28;20323;-14
2021/05/15 02:54:33;;;;;;;2.93;2.63;;;21.10;52.30;;;;;;10452910;28;20197;-11
2021/05/15 02:59:56;;;;;;;3.57;2.77;;;21.10;52.30;;;;;;10453745;28;20201;-15
2021/05/15 03:05:19;;;;;;;3.40;2.60;;;21.10;52.30;;;;;;10454403;28;20262;-14
2021/05/15 03:10:41;;;;;;;4.50;3.30;;;21.10;52.30;;;;;;10440181;28;20690;-10
2021/05/15 03:16:04;;;;;;;3.67;2.67;;;21.10;52.20;;;;;;10452044;28;20216;-13
2021/05/15 03:21:25;;;;;;;3.60;3.10;;;21.10;52.20;;;;;;10464247;28;20197;-11
2021/05/15 03:26:47;;;;;;;3.40;3.10;;;21.10;52.40;;;;;;10451217;28;20590;-14
2021/05/15 03:32:10;;;;;;;4.70;3.40;;;21.10;52.20;;;;;;10451152;28;20209;-13
2021/05/15 03:37:31;;;;;;;4.20;3.23;;;21.10;52.40;;;;;;10479816;22;21096;-12
2021/05/15 03:42:56;;;;;;;4.30;3.20;;;21.10;52.80;;;;;;10484141;28;20192;-11
2021/05/15 03:48:20;;;;;;;4.07;3.07;;;21.20;52.10;;;;;;10492776;28;20293;-11
2021/05/15 03:53:41;;;;;;;3.77;3.33;;;21.10;52.10;;;;;;10488581;28;20207;-13
2021/05/15 03:59:03;;;;;;;3.77;3.40;;;21.20;52.10;;;;;;10489707;28;20269;-11
2021/05/15 04:04:26;;;;;;;4.57;3.57;;;21.10;52.10;;;;;;10450785;28;20197;-11
2021/05/15 04:09:47;;;;;;;4.30;3.37;;;21.20;52.10;;;;;;10466153;28;20639;-13
2021/05/15 04:15:12;;;;;;;4.43;3.70;;;21.20;52.00;;;;;;10492041;28;20200;-13
2021/05/15 04:20:36;;;;;;;4.77;3.70;;;21.10;52.20;;;;;;10489892;28;20227;-13
2021/05/15 04:26:00;;;;;;;5.37;3.77;;;21.10;52.10;;;;;;10492110;28;20234;-11
2021/05/15 04:31:21;;;;;;;5.13;3.57;;;21.00;52.20;;;;;;10458025;28;20256;-13
2021/05/15 04:36:44;;;;;;;5.03;4.00;;;21.10;52.20;;;;;;10451504;28;20255;-13
2021/05/15 04:42:05;;;;;;;4.07;3.67;;;21.10;52.30;;;;;;10451341;28;20290;-13
2021/05/15 04:47:27;;;;;;;4.53;4.07;;;21.00;52.30;;;;;;10450227;28;20217;-11
2021/05/15 04:52:51;;;;;;;6.07;4.30;;;21.00;52.50;;;;;;10466220;28;20201;-11
2021/05/15 04:58:12;;;;;;;6.10;3.77;;;21.00;52.40;;;;;;10491186;28;20282;-12
2021/05/15 05:03:34;;;;;;;4.40;3.97;;;21.00;52.40;;;;;;10491569;28;20253;-11
2021/05/15 05:08:57;;;;;;;4.83;4.40;;;21.00;52.60;;;;;;10498497;28;20220;-13
2021/05/15 05:14:19;;;;;;;4.27;3.87;;;21.10;52.30;;;;;;10497870;28;20196;-13
2021/05/15 05:19:41;;;;;;;5.80;4.10;;;21.10;52.40;;;;;;10494359;28;20212;-13
2021/05/15 05:25:06;;;;;;;6.30;4.23;;;21.00;52.40;;;;;;10498155;28;20238;-13
2021/05/15 05:30:27;;;;;;;4.90;4.40;;;21.00;52.40;;;;;;10472111;28;20304;-14
2021/05/15 05:35:49;;;;;;;4.47;4.07;;;21.00;52.40;;;;;;10456629;28;20197;-13
2021/05/15 05:41:11;;;;;;;4.47;4.07;;;21.00;52.40;;;;;;10456616;28;20221;-14
2021/05/15 05:46:33;;;;;;;4.90;3.97;;;21.00;52.50;;;;;;10456928;28;20590;-12
2021/05/15 05:51:55;;;;;;;4.60;3.90;;;21.10;52.40;;;;;;10464291;28;20216;-11
2021/05/15 05:57:17;;;;;;;4.43;4.03;;;21.10;52.20;;;;;;10497052;28;20238;-12
2021/05/15 06:02:39;;;;;;;4.13;3.73;;;21.10;52.20;;;;;;10493347;28;20262;-12
2021/05/15 06:08:07;;;;;;;4.73;4.20;;;21.00;52.40;;;;;;10493133;28;20270;-11
2021/05/15 06:13:30;;;;;;;4.63;4.23;;;21.00;52.30;;;;;;10496619;28;20681;-13
2021/05/15 06:18:51;;;;;;;5.03;4.17;;;21.10;52.40;;;;;;10496156;28;20204;-11
2021/05/15 06:24:13;;;;;;;5.30;4.80;;;21.00;52.50;;;;;;10496937;28;20211;-11
2021/05/15 06:29:35;;;;;;;4.70;4.10;;;21.00;52.40;;;;;;10495587;28;20227;-14
2021/05/15 06:34:57;;;;;;;4.80;4.30;;;21.00;52.40;;;;;;10486319;28;20500;-13
2021/05/15 06:40:19;;;;;;;4.90;4.33;;;21.10;52.20;;;;;;10473825;28;20221;-14
2021/05/15 06:45:41;;;;;;;5.17;4.17;;;21.10;52.10;;;;;;10494428;28;20203;-11
2021/05/15 06:51:03;;;;;;;4.47;4.07;;;21.10;52.30;;;;;;10495563;28;20293;-13
2021/05/15 06:56:25;;;;;;;5.07;4.13;;;21.00;52.30;;;;;;10493301;28;20246;-11
2021/05/15 07:01:47;;;;;;;4.30;3.90;;;21.00;52.30;;;;;;10493447;28;20223;-11
2021/05/15 07:07:09;;;;;;;4.50;4.00;;;21.00;52.30;;;;;;10492398;28;20221;-14
2021/05/15 07:12:30;;;;;;;4.63;4.13;;;21.10;52.30;;;;;;10493509;28;20192;-14
2021/05/15 07:17:53;;;;;;;4.90;4.40;;;21.10;52.10;;;;;;10493471;28;20243;-11
2021/05/15 07:23:14;;;;;;;5.60;4.03;;;21.20;52.10;;;;;;10492983;28;20192;-15
2021/05/15 07:28:36;;;;;;;17.50;4.97;;;21.10;52.30;;;;;;10492989;28;20235;-11
2021/05/15 07:33:59;;;;;;;9.73;4.37;;;21.10;52.40;;;;;;10480055;28;20201;-13
2021/05/15 07:39:21;;;;;;;6.53;4.33;;;21.20;52.30;;;;;;10469212;28;20215;-13
2021/05/15 07:44:42;;;;;;;7.03;4.20;;;21.20;52.20;;;;;;10493624;28;20208;-12
2021/05/15 07:50:06;;;;;;;9.23;3.70;;;21.10;52.20;;;;;;10453344;28;20617;-11
2021/05/15 07:55:27;;;;;;;9.03;4.17;;;21.20;51.90;;;;;;10488962;28;20254;-13
2021/05/15 08:00:49;;;;;;;6.07;3.73;;;21.20;52.00;;;;;;10490611;28;20212;-11
2021/05/15 08:06:13;;;;;;;5.00;4.20;;;21.20;52.00;;;;;;10490259;28;20200;-14
2021/05/15 08:11:35;;;;;;;5.87;3.67;;;21.10;52.40;;;;;;10492805;28;20220;-13
2021/05/15 08:16:56;;;;;;;11.13;5.33;;;21.00;52.50;;;;;;10491056;28;20243;-12
2021/05/15 08:22:19;;;;;;;18.67;12.03;;;21.10;52.20;;;;;;10484021;28;20208;-11
2021/05/15 08:27:42;;;;;;;25.10;12.80;;;20.90;50.80;;;;;;10450641;28;20270;-14
2021/05/15 08:33:04;;;;;;;27.60;13.23;;;21.10;51.10;;;;;;10502034;28;20196;-13
2021/05/15 08:38:26;;;;;;;21.03;12.70;;;20.90;50.30;;;;;;10496597;28;20220;-12
2021/05/15 08:43:49;;;;;;;15.83;11.00;;;20.80;50.40;;;;;;10493139;28;20200;-12
2021/05/15 08:49:14;;;;;;;15.03;10.73;;;20.80;49.80;;;;;;10529817;28;20736;-13
2021/05/15 08:54:37;;;;;;;14.00;10.13;;;20.90;49.80;;;;;;10510752;28;20215;-12
2021/05/15 08:59:58;;;;;;;11.70;10.47;;;20.70;49.30;;;;;;10522588;28;20222;-11
2021/05/15 09:05:21;;;;;;;13.63;9.80;;;20.50;49.70;;;;;;10539529;28;20270;-12
2021/05/15 09:10:45;;;;;;;11.00;8.60;;;20.50;50.40;;;;;;10539632;28;20216;-13
2021/05/15 09:16:07;;;;;;;11.50;9.13;;;20.40;50.20;;;;;;10539312;28;20704;-13
2021/05/15 09:21:28;;;;;;;13.03;9.43;;;20.40;50.70;;;;;;10502837;28;20511;-14
2021/05/15 09:26:51;;;;;;;13.50;8.33;;;20.80;50.20;;;;;;10497725;28;20216;-12
2021/05/15 09:32:13;;;;;;;8.90;7.80;;;20.80;50.30;;;;;;10494267;28;20219;-12
2021/05/15 09:37:36;;;;;;;10.13;7.73;;;21.00;50.80;;;;;;10496657;28;20701;-12
2021/05/15 09:43:00;;;;;;;8.93;7.97;;;21.10;50.60;;;;;;10539819;22;20281;-8
2021/05/15 09:48:35;;;;;;;13.13;6.77;;;21.20;50.70;;;;;;10558860;28;20263;-10
2021/05/15 09:54:11;;;;;;;8.07;7.27;;;21.20;51.00;;;;;;10570234;28;20632;-10
2021/05/15 09:59:36;;;;;;;11.20;8.97;;;21.20;50.40;;;;;;10571593;28;20183;-10
2021/05/15 10:05:09;;;;;;;10.43;9.27;;;21.00;50.80;;;;;;10539748;28;20219;-9
2021/05/15 10:10:32;;;;;;;13.60;8.93;;;21.10;51.00;;;;;;10538039;28;20268;-10
2021/05/15 10:15:54;;;;;;;11.43;8.43;;;21.10;50.60;;;;;;10530647;28;20226;-11
2021/05/15 10:21:16;;;;;;;8.03;7.23;;;20.90;50.20;;;;;;10536051;28;20246;-10
2021/05/15 10:26:38;;;;;;;11.57;6.20;;;21.00;50.20;;;;;;10528083;28;20215;-13
2021/05/15 10:32:01;;;;;;;8.90;5.90;;;21.20;50.10;;;;;;10531785;28;20421;-7
2021/05/15 10:37:23;;;;;;;9.13;6.23;;;21.10;49.90;;;;;;10528106;28;20560;-11
2021/05/15 10:42:45;;;;;;;6.03;5.30;;;21.10;50.40;;;;;;10533421;28;20699;-9
2021/05/15 10:48:22;;;;;;;8.73;6.23;;;21.10;51.00;;;;;;10534329;28;20215;-10
2021/05/15 10:53:54;;;;;;;8.33;5.53;;;21.20;50.40;;;;;;10555974;28;20218;-10
2021/05/15 10:59:19;;;;;;;8.10;4.10;;;21.20;51.30;;;;;;10577520;28;20278;-12
2021/05/15 11:04:50;;;;;;;4.30;3.23;;;21.20;51.50;;;;;;10563858;28;20222;-9
2021/05/15 11:10:13;;;;;;;6.37;3.70;;;21.20;50.10;;;;;;10577296;28;20297;-9
2021/05/15 11:15:34;;;;;;;7.63;3.17;;;21.30;51.00;;;;;;10577208;28;20211;-9
2021/05/15 11:21:06;;;;;;;8.30;2.90;;;21.30;51.20;;;;;;10576528;28;20194;-9
2021/05/15 11:26:37;;;;;;;7.00;2.90;;;21.30;50.50;;;;;;10559527;28;20198;-10
2021/05/15 11:32:05;;;;;;;7.37;2.70;;;21.40;49.60;;;;;;10535031;28;20216;-9
2021/05/15 11:37:27;;;;;;;4.17;3.00;;;21.40;50.00;;;;;;10519322;28;20199;-9
2021/05/15 11:42:55;;;;;;;4.10;2.70;;;21.30;49.10;;;;;;10540002;28;20223;-10
2021/05/15 11:48:20;;;;;;;2.90;2.63;;;21.20;49.20;;;;;;10533530;28;20249;-11
2021/05/15 11:53:44;;;;;;;3.63;3.27;;;21.20;49.40;;;;;;10556096;28;20245;-9
2021/05/15 11:59:05;;;;;;;4.33;3.80;;;21.10;51.20;;;;;;10575864;28;20191;-12
2021/05/15 12:04:28;;;;;;;5.07;4.37;;;21.00;52.20;;;;;;10539402;28;20219;-9
2021/05/15 12:09:51;;;;;;;4.30;3.20;;;20.80;53.20;;;;;;10539630;28;20795;-10
2021/05/15 12:15:13;;;;;;;4.03;2.77;;;20.80;53.10;;;;;;10526576;28;20265;-11
2021/05/15 12:20:40;;;;;;;9.63;3.03;;;20.90;52.90;;;;;;10498770;28;20546;-10
2021/05/15 12:26:06;;;;;;;8.63;2.83;;;21.00;52.70;;;;;;10498327;28;20223;-10
2021/05/15 12:31:30;;;;;;;17.27;3.17;;;21.00;52.90;;;;;;10536267;28;20215;-10
2021/05/15 12:36:51;;;;;;;21.90;3.73;;;21.00;52.80;;;;;;10508420;28;20603;-8
2021/05/15 12:42:15;;;;;;;28.47;4.60;;;21.00;52.90;;;;;;10495953;28;20735;-11
2021/05/15 12:47:38;;;;;;;38.23;4.50;;;21.10;52.90;;;;;;10498628;28;20229;-9
2021/05/15 12:53:07;;;;;;;22.20;3.80;;;21.20;53.20;;;;;;10517356;28;20722;-11
2021/05/15 12:58:30;;;;;;;25.63;4.23;;;21.10;53.20;;;;;;10496773;28;20270;-14
2021/05/15 13:03:54;;;;;;;17.53;3.33;;;21.00;53.20;;;;;;10517945;28;20761;-13
2021/05/15 13:09:16;;;;;;;17.63;3.40;;;21.10;53.30;;;;;;10494377;28;20212;-13
2021/05/15 13:14:39;;;;;;;18.43;3.00;;;21.10;53.20;;;;;;10497198;28;20265;-12
2021/05/15 13:20:01;;;;;;;21.63;3.30;;;21.10;53.30;;;;;;10496687;28;20196;-12
2021/05/15 13:25:22;;;;;;;20.67;3.60;;;21.20;53.30;;;;;;10521750;28;20224;-14
2021/05/15 13:30:45;;;;;;;41.67;4.87;;;21.10;53.30;;;;;;10539388;28;20218;-11
2021/05/15 13:36:07;;;;;;;47.97;4.80;;;21.20;53.50;;;;;;10538867;28;20272;-13
2021/05/15 13:41:28;;;;;;;23.13;3.23;;;21.10;53.60;;;;;;10553618;28;20196;-11
2021/05/15 13:46:51;;;;;;;16.23;2.60;;;21.10;53.60;;;;;;10516006;28;20207;-13
2021/05/15 13:52:13;;;;;;;18.10;2.37;;;21.00;53.80;;;;;;10516054;28;20241;-12
2021/05/15 13:57:34;;;;;;;10.80;2.70;;;21.00;54.00;;;;;;10534864;28;20672;-13
2021/05/15 14:02:57;;;;;;;11.17;2.03;;;21.00;53.90;;;;;;10541941;28;20223;-11
2021/05/15 14:08:18;;;;;;;6.67;1.50;;;21.00;53.70;;;;;;10553108;28;20215;-12
2021/05/15 14:13:40;;;;;;;8.43;1.20;;;21.10;52.60;;;;;;10516945;28;20648;-13
2021/05/15 14:19:03;;;;;;;4.67;1.30;;;21.10;52.50;;;;;;10519067;28;20187;-13
2021/05/15 14:24:24;;;;;;;5.13;1.00;;;21.10;52.10;;;;;;10515915;28;20215;-12
2021/05/15 14:29:46;;;;;;;3.67;1.10;;;21.10;52.70;;;;;;10512234;28;20229;-12
2021/05/15 14:35:10;;;;;;;2.60;0.93;;;21.10;52.80;;;;;;10512517;28;20580;-13
2021/05/15 14:40:32;;;;;;;4.33;0.70;;;21.10;53.00;;;;;;10512026;28;20195;-13
2021/05/15 14:45:53;;;;;;;4.57;1.33;;;21.20;52.80;;;;;;10506019;28;20227;-12
2021/05/15 14:51:16;;;;;;;1.00;0.60;;;21.00;52.50;;;;;;10514779;28;20247;-12
2021/05/15 14:56:38;;;;;;;1.63;0.70;;;21.00;52.60;;;;;;10515282;28;20188;-11
2021/05/15 15:01:59;;;;;;;1.20;0.70;;;21.00;52.70;;;;;;10515548;28;20591;-12
2021/05/15 15:07:22;;;;;;;1.77;0.60;;;21.00;52.10;;;;;;10517390;28;20703;-11
2021/05/15 15:12:43;;;;;;;0.87;0.47;;;21.10;52.00;;;;;;10515180;28;20262;-12
2021/05/15 15:18:05;;;;;;;2.10;0.60;;;21.10;52.40;;;;;;10510455;28;20189;-14
2021/05/15 15:23:28;;;;;;;2.17;0.47;;;21.10;52.40;;;;;;10514988;28;20239;-12
2021/05/15 15:28:50;;;;;;;1.13;0.50;;;21.10;52.50;;;;;;10520877;28;20683;-12
2021/05/15 15:34:12;;;;;;;0.70;0.40;;;21.00;52.50;;;;;;10521513;28;20208;-10
2021/05/15 15:39:34;;;;;;;1.77;0.43;;;21.10;52.30;;;;;;10498055;28;20188;-12
2021/05/15 15:44:56;;;;;;;3.70;0.60;;;21.10;52.10;;;;;;10527174;22;20717;-12
2021/05/15 15:50:18;;;;;;;0.87;0.40;;;21.10;52.50;;;;;;10518781;28;20695;-12
2021/05/15 15:55:40;;;;;;;0.83;0.30;;;21.10;52.50;;;;;;10484033;28;20209;-13
2021/05/15 16:01:02;;;;;;;0.73;0.30;;;21.10;52.20;;;;;;10476461;28;20189;-13
2021/05/15 16:06:24;;;;;;;1.93;0.30;;;21.10;52.30;;;;;;10462738;28;20303;-12
2021/05/15 16:11:47;;;;;;;0.40;0.40;;;21.00;52.30;;;;;;10463390;28;20208;-12
2021/05/15 16:17:10;;;;;;;1.17;0.30;;;21.10;52.20;;;;;;10483962;28;20708;-12
2021/05/15 16:22:32;;;;;;;1.00;0.60;;;21.00;52.50;;;;;;10476215;28;20212;-13
2021/05/15 16:27:55;;;;;;;0.73;0.40;;;21.00;52.40;;;;;;10482088;28;20219;-13
2021/05/15 16:33:17;;;;;;;0.33;0.33;;;21.00;52.60;;;;;;10451284;28;20637;-13
2021/05/15 16:38:39;;;;;;;0.47;0.40;;;21.10;52.50;;;;;;10451747;28;20193;-11
2021/05/15 16:44:02;;;;;;;1.13;0.40;;;21.10;52.40;;;;;;10487069;28;20220;-12
2021/05/15 16:49:23;;;;;;;0.53;0.40;;;21.10;52.80;;;;;;10491992;28;20208;-12
2021/05/15 16:54:47;;;;;;;0.30;0.30;;;21.00;52.30;;;;;;10459811;28;20225;-13
2021/05/15 17:00:11;;;;;;;0.40;0.40;;;21.10;52.40;;;;;;10453906;28;20200;-11
2021/05/15 17:05:32;;;;;;;1.60;0.60;;;21.00;52.50;;;;;;10478717;28;20251;-12
2021/05/15 17:10:54;;;;;;;0.67;0.40;;;21.10;52.40;;;;;;10498448;28;20216;-12
2021/05/15 17:16:17;;;;;;;0.50;0.47;;;21.00;52.60;;;;;;10498029;28;20219;-12
2021/05/15 17:21:39;;;;;;;0.60;0.60;;;21.10;52.30;;;;;;10498570;28;20277;-12
2021/05/15 17:27:01;;;;;;;0.50;0.50;;;21.00;52.30;;;;;;10497456;28;20223;-11
2021/05/15 17:32:24;;;;;;;0.60;0.50;;;21.00;52.50;;;;;;10491781;28;20208;-12
2021/05/15 17:37:45;;;;;;;5.00;0.87;;;21.00;52.40;;;;;;10482148;28;20636;-11
2021/05/15 17:43:07;;;;;;;2.83;0.50;;;21.10;51.70;;;;;;10480339;28;20221;-13
2021/05/15 17:48:36;;;;;;;3.47;0.60;;;21.20;51.40;;;;;;10489157;28;20235;-12
2021/05/15 17:53:58;;;;;;;3.03;0.70;;;21.20;51.50;;;;;;10471757;28;20213;-13
2021/05/15 17:59:19;;;;;;;1.07;0.77;;;21.10;51.90;;;;;;10455984;28;20200;-13
2021/05/15 18:04:42;;;;;;;4.20;0.67;;;21.10;52.10;;;;;;10455288;28;20217;-11
2021/05/15 18:10:05;;;;;;;0.80;0.60;;;21.30;52.00;;;;;;10465022;28;20760;-12
2021/05/15 18:15:27;;;;;;;3.70;0.80;;;21.50;51.30;;;;;;10453692;28;20240;-13
2021/05/15 18:20:51;;;;;;;2.57;0.60;;;21.60;50.90;;;;;;10451090;28;20581;-12
2021/05/15 18:26:13;;;;;;;4.00;0.80;;;21.80;50.90;;;;;;10469761;28;20225;-13
2021/05/15 18:31:34;;;;;;;4.00;1.17;;;21.90;50.80;;;;;;10495325;28;20639;-12
2021/05/15 18:36:57;;;;;;;4.20;0.83;;;21.90;50.70;;;;;;10494594;28;20216;-12
2021/05/15 18:42:19;;;;;;;2.40;0.70;;;21.90;50.80;;;;;;10472508;28;20197;-12
2021/05/15 18:47:40;;;;;;;2.70;0.80;;;22.10;50.80;;;;;;10453352;28;20259;-12
2021/05/15 18:53:04;;;;;;;2.43;0.97;;;22.20;50.20;;;;;;10471076;28;20596;-12
2021/05/15 18:58:26;;;;;;;6.23;1.20;;;22.30;50.50;;;;;;10494363;28;20250;-12
2021/05/15 19:03:47;;;;;;;5.63;1.10;;;22.30;50.30;;;;;;10491432;28;21303;-12
2021/05/15 19:09:10;;;;;;;3.37;0.83;;;22.70;48.70;;;;;;10483486;28;20267;-11
2021/05/15 19:14:31;;;;;;;3.57;1.27;;;22.00;50.00;;;;;;10492546;28;20252;-13
2021/05/15 19:19:53;;;;;;;2.23;0.70;;;21.70;51.30;;;;;;10492086;28;20752;-14
2021/05/15 19:25:16;;;;;;;4.10;0.70;;;21.50;52.20;;;;;;10484546;28;20227;-11
2021/05/15 19:30:37;;;;;;;6.60;0.90;;;21.30;52.20;;;;;;10493801;28;20592;-11
2021/05/15 19:35:59;;;;;;;2.37;0.80;;;21.40;52.10;;;;;;10492278;28;20224;-13
2021/05/15 19:41:21;;;;;;;1.77;0.70;;;21.50;52.00;;;;;;10479544;28;20216;-11
2021/05/15 19:46:43;;;;;;;2.50;0.80;;;21.50;52.00;;;;;;10448802;28;20220;-13
2021/05/15 19:52:06;;;;;;;2.43;0.70;;;21.50;51.80;;;;;;10455312;28;20224;-12
2021/05/15 19:57:28;;;;;;;0.70;0.60;;;21.40;51.80;;;;;;10488338;28;20204;-12
2021/05/15 20:02:51;;;;;;;0.93;0.63;;;21.50;52.00;;;;;;10482051;28;20224;-13
2021/05/15 20:08:13;;;;;;;1.47;0.70;;;21.40;51.70;;;;;;10447457;28;20209;-13
2021/05/15 20:13:35;;;;;;;6.47;1.10;;;21.50;51.60;;;;;;10470971;28;20224;-13
2021/05/15 20:19:02;;;;;;;4.70;1.10;;;21.60;51.70;;;;;;10490940;28;20189;-13
2021/05/15 20:24:24;;;;;;;3.43;1.00;;;21.60;51.80;;;;;;10455313;28;20216;-14
2021/05/15 20:29:46;;;;;;;2.03;0.80;;;21.60;51.60;;;;;;10485281;28;20224;-12
2021/05/15 20:35:09;;;;;;;3.87;0.90;;;21.60;51.60;;;;;;10461486;28;20456;-12
2021/05/15 20:40:31;;;;;;;2.57;0.70;;;21.60;51.90;;;;;;10457627;28;20216;-13
2021/05/15 20:45:53;;;;;;;1.87;0.80;;;21.60;52.00;;;;;;10459028;28;20228;-12
2021/05/15 20:51:17;;;;;;;1.80;0.80;;;21.60;52.10;;;;;;10472701;28;20227;-13
2021/05/15 20:56:39;;;;;;;2.50;0.80;;;22.30;50.50;;;;;;10482154;28;20220;-13
2021/05/15 21:02:01;;;;;;;1.00;0.50;;;23.00;48.80;;;;;;10499590;28;20546;-13
2021/05/15 21:07:23;;;;;;;3.70;1.03;;;23.50;47.60;;;;;;10497559;28;20657;-12
2021/05/15 21:12:45;;;;;;;4.20;1.03;;;23.70;47.20;;;;;;10484639;28;20223;-11
2021/05/15 21:18:07;;;;;;;3.00;0.60;;;23.90;47.00;;;;;;10457552;28;20192;-13
2021/05/15 21:23:29;;;;;;;3.10;0.80;;;24.00;46.60;;;;;;10457134;28;20220;-12
2021/05/15 21:28:51;;;;;;;2.80;1.03;;;24.20;46.40;;;;;;10466677;28;20224;-13
2021/05/15 21:34:13;;;;;;;0.80;0.70;;;24.30;46.40;;;;;;10456727;28;20212;-13
2021/05/15 21:39:35;;;;;;;3.03;0.73;;;23.70;46.10;;;;;;10464164;28;20197;-13
2021/05/15 21:44:57;;;;;;;4.80;0.70;;;23.20;48.20;;;;;;10488684;22;20231;-8
2021/05/15 21:50:21;;;;;;;5.73;0.90;;;23.40;48.00;;;;;;10531188;28;20595;-8
2021/05/15 21:55:43;;;;;;;1.60;0.60;;;23.30;47.90;;;;;;10519667;28;20242;-8
2021/05/15 22:01:04;;;;;;;1.73;1.00;;;22.90;48.30;;;;;;10537614;28;20195;-8
2021/05/15 22:06:27;;;;;;;3.53;0.90;;;22.30;49.90;;;;;;10496965;28;20412;-10
2021/05/15 22:11:49;;;;;;;1.87;0.90;;;22.00;50.70;;;;;;10496534;28;20220;-8
2021/05/15 22:17:11;;;;;;;2.47;0.77;;;21.90;51.30;;;;;;10496754;28;20220;-9
2021/05/15 22:22:33;;;;;;;1.40;0.73;;;21.70;51.60;;;;;;10494774;28;20196;-8
2021/05/15 22:27:55;;;;;;;0.77;0.77;;;21.60;52.00;;;;;;10493595;28;20769;-9
2021/05/15 22:33:17;;;;;;;1.33;0.90;;;21.50;52.10;;;;;;10496305;28;20197;-9
2021/05/15 22:38:40;;;;;;;1.40;0.93;;;21.40;52.20;;;;;;10488060;28;20217;-9
2021/05/15 22:44:01;;;;;;;0.80;0.80;;;21.40;52.40;;;;;;10454761;28;20205;-8
2021/05/15 22:49:23;;;;;;;0.90;0.70;;;21.30;52.60;;;;;;10454359;28;20217;-8
2021/05/15 22:54:46;;;;;;;0.77;0.67;;;21.40;52.50;;;;;;10483967;28;20215;-9
2021/05/15 23:00:10;;;;;;;1.30;0.80;;;21.30;52.50;;;;;;10494756;28;20205;-8
2021/05/15 23:05:32;;;;;;;0.70;0.70;;;21.20;52.70;;;;;;10494686;28;20685;-9
2021/05/15 23:10:55;;;;;;;1.20;0.70;;;21.20;52.90;;;;;;10494844;28;20270;-11
2021/05/15 23:16:17;;;;;;;1.10;0.90;;;21.20;52.80;;;;;;10495599;28;20227;-9
2021/05/15 23:21:40;;;;;;;2.17;0.77;;;21.20;52.80;;;;;;10495547;28;20193;-10
2021/05/15 23:27:03;;;;;;;1.07;0.90;;;21.10;52.90;;;;;;10495123;28;20273;-9
2021/05/15 23:32:25;;;;;;;1.53;0.60;;;21.10;53.00;;;;;;10494575;28;20219;-11
2021/05/15 23:37:47;;;;;;;1.33;0.80;;;21.10;52.90;;;;;;10488965;28;20221;-8
2021/05/15 23:43:10;;;;;;;1.50;0.80;;;21.10;53.00;;;;;;10493228;28;20201;-10
2021/05/15 23:48:31;;;;;;;2.03;0.80;;;21.10;53.00;;;;;;10494387;28;20219;-8
2021/05/15 23:53:53;;;;;;;1.83;0.70;;;21.10;53.20;;;;;;10494438;28;20196;-9
2021/05/15 23:59:16;;;;;;;0.70;0.63;;;21.00;53.20;;;;;;10493342;28;20684;-9
